createdAt,value
2023-04-12T00:15:02.700Z,958.08
2023-04-12T01:05:12.320Z,957.86
2023-04-12T01:06:11.720Z,957.86
2023-04-12T01:18:49.281Z,957.90
2023-04-12T01:19:49.124Z,957.90
2023-04-12T02:44:07.415Z,957.21
2023-04-12T05:19:41.144Z,955.10
2023-04-12T05:20:40.903Z,955.12
2023-04-12T07:12:40.941Z,954.31
2023-04-12T07:13:28.294Z,954.26
2023-04-12T07:14:27.168Z,954.19
2023-04-12T07:15:27.336Z,954.22
2023-04-12T07:16:25.644Z,954.20
2023-04-12T07:17:27.863Z,954.14
2023-04-12T07:18:25.407Z,954.12
2023-04-12T07:19:25.016Z,954.09
2023-04-12T07:20:25.075Z,954.06
2023-04-12T07:21:25.252Z,954.00
2023-04-12T07:22:24.831Z,953.97
2023-04-12T07:23:24.948Z,953.99
2023-04-12T07:24:24.701Z,953.99
2023-04-12T07:25:24.648Z,953.91
2023-04-12T07:26:24.636Z,953.88
2023-04-12T07:27:24.514Z,953.88
2023-04-12T07:28:24.586Z,953.80
2023-04-12T07:29:24.744Z,953.75
2023-04-12T07:30:24.759Z,953.69
2023-04-12T07:31:24.332Z,953.67
2023-04-12T07:32:24.390Z,953.70
2023-04-12T07:33:24.286Z,953.70
2023-04-12T07:34:26.030Z,953.62
2023-04-12T07:35:24.041Z,953.62
2023-04-12T07:36:24.097Z,953.59
2023-04-12T07:37:23.974Z,953.64
2023-04-12T07:38:23.861Z,953.61
2023-04-12T07:39:23.873Z,953.61
2023-04-12T07:40:23.900Z,953.60
2023-04-12T07:41:23.706Z,953.58
2023-04-12T07:42:23.941Z,953.56
2023-04-12T07:43:23.785Z,953.56
2023-04-12T07:44:23.605Z,953.53
2023-04-12T07:45:23.625Z,953.53
2023-04-12T07:46:23.566Z,953.53
2023-04-12T07:47:23.427Z,953.53
2023-04-12T07:48:23.454Z,953.53
2023-04-12T07:49:23.143Z,953.51
2023-04-12T07:50:23.098Z,953.48
2023-04-12T07:51:23.157Z,953.48
2023-04-12T07:52:23.160Z,953.50
2023-04-12T07:53:23.016Z,953.47
2023-04-12T07:54:23.643Z,953.48
2023-04-12T07:55:22.691Z,953.44
2023-04-12T07:56:22.580Z,953.41
2023-04-12T07:57:22.653Z,953.34
2023-04-12T07:58:22.457Z,953.38
2023-04-12T07:59:22.353Z,953.39
2023-04-12T08:00:22.534Z,953.41
2023-04-12T08:01:22.310Z,953.38
2023-04-12T08:02:22.269Z,953.38
2023-04-12T08:03:22.335Z,953.36
2023-04-12T08:04:22.227Z,953.37
2023-04-12T08:05:22.114Z,953.38
2023-04-12T08:06:21.914Z,953.36
2023-04-12T08:07:21.818Z,953.38
2023-04-12T08:08:21.886Z,953.35
2023-04-12T08:09:21.812Z,953.32
2023-04-12T08:10:21.784Z,953.27
2023-04-12T08:11:21.636Z,953.27
2023-04-12T19:03:57.688Z,950.01
2023-04-12T19:04:57.562Z,950.02
2023-04-12T23:40:06.438Z,951.90
